Disclaimer

Please do not use the information listed here in-flight or in-navigation, as they are not provided to us by the airports but are provided by volunteers, so they might be outdated.

Search


Regions


Airport information page

Radio informations:
Tower (TWR) - 122.1 MHz
RADAR - 128.9 MHz
PTD - 244.475 MHz
COMD POST - 379.8 MHz
PMSV METRO - 284.425 MHz
Ground (GND) - 375.45 MHz
DEP - 250.3 MHz
CAC LONDON MIL - 277.775 MHz
Automatic Terminal Information Service (ATIS) - 356.725 MHz
Approach (APP) - 136.5 MHz

Airport informations:
Latitude: 52° 24' 33.60" N
Longitude: 000° 33' 39.60" E
Elevation: 32 feet - 10 meters
Operating hours: Remarks
Operating agency: US Air Force
Timezone: UTC 0(+1DT) - Last Sunday in March to last Sunday in October
Fuel: N/A

Runway information:
06/24 - 9000 x 150 feet< - >2743 x 46 meters

Recent METARs:
EGUL 191613Z AUTO 05013G21KT 9999 -RA FEW020 FEW045 07/03 A3010 RMK AO2 RAE03RAB13 SLP196 $
EGUL 191653Z AUTO 04013G19KT 9999 CLR 06/03 A3009 RMK AO2 RAE03RAB13E23DZB34E35RAB35 SLP193 $
EGUL 191657Z AUTO 04014G19KT 9999 -RA FEW032 06/03 A3008 RMK AO2 RAB56 SLP190 $

Airport on the map: